Time;durP1;ratioP1;P1;durP2;ratioP2;P2;SDS_P1;SDS_P2;PMS_P1;PMS_P2;Temp;Humidity;BMP_temperature;BMP_pressure;BME280_temperature;BME280_humidity;BME280_pressure;Samples;Min_cycle;Max_cycle;Signal;HPM_P1;HPM_P2
2022/01/05 00:02:05;;;;;;;72.95;24.83;;;1.90;99.90;;;;;;5053653;28;20396;-94
2022/01/05 00:04:34;;;;;;;37.80;23.80;;;1.90;99.90;;;;;;5037343;28;20442;-95
2022/01/05 00:07:07;;;;;;;34.58;22.35;;;1.90;99.90;;;;;;5070585;28;20410;-94
2022/01/05 00:09:35;;;;;;;41.05;23.38;;;2.00;99.90;;;;;;5046866;28;20499;-94
2022/01/05 00:12:04;;;;;;;60.42;21.17;;;2.00;99.90;;;;;;5037720;28;20411;-93
2022/01/05 00:14:32;;;;;;;39.30;22.77;;;2.00;99.90;;;;;;5047534;28;20414;-94
2022/01/05 00:16:59;;;;;;;46.22;26.35;;;2.00;99.90;;;;;;5037701;28;20398;-93
2022/01/05 00:19:28;;;;;;;56.63;28.38;;;2.00;99.90;;;;;;5037252;28;20400;-94
2022/01/05 00:21:55;;;;;;;42.20;24.03;;;2.00;99.90;;;;;;5037677;28;20415;-93
2022/01/05 00:24:23;;;;;;;42.75;25.27;;;2.00;99.90;;;;;;4959575;28;2303065;-93
2022/01/05 00:26:51;;;;;;;51.65;24.55;;;2.00;99.90;;;;;;5038418;28;20410;-94
2022/01/05 00:29:20;;;;;;;47.70;25.38;;;2.00;99.90;;;;;;5040161;28;20409;-93
2022/01/05 00:31:48;;;;;;;43.13;21.75;;;2.00;99.90;;;;;;5042148;28;20407;-93
2022/01/05 00:34:16;;;;;;;44.40;24.17;;;1.90;99.90;;;;;;5042115;28;20436;-93
2022/01/05 00:36:44;;;;;;;38.60;19.42;;;2.00;99.90;;;;;;5057901;28;20878;-93
2022/01/05 00:39:12;;;;;;;43.35;24.95;;;2.00;99.90;;;;;;5041321;28;20400;-94
2022/01/05 00:41:40;;;;;;;36.33;22.48;;;2.00;99.90;;;;;;5038441;28;20396;-94
2022/01/05 00:44:08;;;;;;;40.60;23.42;;;2.00;99.90;;;;;;5038147;28;20423;-93
2022/01/05 00:46:36;;;;;;;81.10;21.43;;;2.00;99.90;;;;;;5038578;28;20404;-94
2022/01/05 00:49:04;;;;;;;55.63;25.13;;;1.90;99.90;;;;;;5038738;28;20407;-93
2022/01/05 00:51:32;;;;;;;63.95;21.05;;;2.00;99.90;;;;;;5036652;28;20886;-94
2022/01/05 00:54:00;;;;;;;54.70;24.67;;;1.90;99.90;;;;;;5054272;28;20406;-95
2022/01/05 00:56:28;;;;;;;42.03;21.08;;;2.00;99.90;;;;;;5036847;28;20400;-94
2022/01/05 00:58:55;;;;;;;44.00;20.58;;;2.00;99.90;;;;;;5054681;28;20404;-92
2022/01/05 01:01:23;;;;;;;40.75;20.42;;;2.00;99.90;;;;;;5038701;28;20495;-94
2022/01/05 01:03:52;;;;;;;51.47;21.27;;;1.90;99.90;;;;;;5039146;28;20407;-93
2022/01/05 01:06:21;;;;;;;42.58;22.58;;;1.90;99.90;;;;;;5040689;28;20450;-94
2022/01/05 01:08:50;;;;;;;37.80;22.80;;;1.90;99.90;;;;;;5063137;28;20407;-94
2022/01/05 01:11:18;;;;;;;59.88;22.23;;;1.90;99.90;;;;;;5035445;28;20403;-94
2022/01/05 01:13:46;;;;;;;82.53;22.60;;;2.00;99.90;;;;;;5036501;28;20747;-93
2022/01/05 01:16:14;;;;;;;65.93;22.08;;;2.00;99.90;;;;;;5036978;28;20400;-93
2022/01/05 01:18:42;;;;;;;79.60;22.75;;;2.00;99.90;;;;;;5036443;28;20435;-94
2022/01/05 01:21:10;;;;;;;89.63;21.38;;;1.90;99.90;;;;;;5052930;28;20404;-93
2022/01/05 01:23:40;;;;;;;78.85;22.08;;;1.90;99.90;;;;;;5036717;28;20417;-93
2022/01/05 01:26:08;;;;;;;78.05;22.52;;;1.90;99.90;;;;;;5037905;28;20453;-94
2022/01/05 01:28:36;;;;;;;39.47;23.48;;;1.90;99.90;;;;;;5037337;28;20395;-93
2022/01/05 01:31:04;;;;;;;36.08;18.98;;;1.90;99.90;;;;;;5035545;28;20921;-95
2022/01/05 01:33:32;;;;;;;49.53;19.40;;;1.90;99.90;;;;;;5035414;28;20404;-94
2022/01/05 01:36:00;;;;;;;39.00;19.42;;;1.90;99.90;;;;;;5035289;28;20400;-94
2022/01/05 01:38:28;;;;;;;53.15;19.08;;;1.80;99.90;;;;;;5035556;28;20399;-94
2022/01/05 01:40:56;;;;;;;47.92;20.00;;;1.80;99.90;;;;;;5035562;28;20408;-94
2022/01/05 01:43:24;;;;;;;61.45;18.35;;;1.80;99.90;;;;;;5035685;28;20488;-93
2022/01/05 01:45:52;;;;;;;86.30;19.42;;;1.80;99.90;;;;;;5039191;28;20412;-93
2022/01/05 01:48:20;;;;;;;49.50;22.08;;;1.80;99.90;;;;;;5038393;28;20419;-94
2022/01/05 01:50:48;;;;;;;98.50;21.20;;;1.80;99.90;;;;;;5035647;28;20886;-95
2022/01/05 01:53:16;;;;;;;130.35;23.13;;;1.80;99.90;;;;;;5035637;28;20404;-93
2022/01/05 01:55:46;;;;;;;65.93;20.65;;;1.80;99.90;;;;;;5035727;28;20493;-93
2022/01/05 01:58:14;;;;;;;86.68;20.42;;;1.80;99.90;;;;;;5035926;28;20435;-94
2022/01/05 02:00:42;;;;;;;73.90;21.08;;;1.80;99.90;;;;;;5035612;28;20404;-94
2022/01/05 02:03:14;;;;;;;56.70;22.83;;;1.80;99.90;;;;;;5051870;28;20431;-93
2022/01/05 02:05:42;;;;;;;46.88;21.38;;;1.80;99.90;;;;;;5036471;28;20458;-94
2022/01/05 02:08:10;;;;;;;39.10;23.47;;;1.80;99.90;;;;;;5052503;28;20408;-93
2022/01/05 02:10:38;;;;;;;49.80;24.35;;;1.90;99.90;;;;;;5052438;28;20441;-94
2022/01/05 02:13:05;;;;;;;38.78;20.92;;;1.90;99.90;;;;;;5036246;28;20430;-93
2022/01/05 02:15:33;;;;;;;43.85;19.92;;;1.90;99.90;;;;;;5052540;28;20415;-92
2022/01/05 02:20:30;;;;;;;114.35;22.10;;;1.90;99.90;;;;;;5052941;28;20897;-93
2022/01/05 02:22:58;;;;;;;49.33;21.02;;;1.80;99.90;;;;;;5054594;28;20503;-93
2022/01/05 02:25:27;;;;;;;65.65;22.63;;;1.90;99.90;;;;;;5055387;28;20407;-93
2022/01/05 02:27:56;;;;;;;39.43;20.70;;;1.90;99.90;;;;;;5056325;28;20399;-92
2022/01/05 02:30:27;;;;;;;36.95;20.00;;;1.90;99.90;;;;;;5038743;28;20408;-94
2022/01/05 02:32:56;;;;;;;32.95;16.83;;;1.90;99.90;;;;;;5038949;28;20400;-94
2022/01/05 02:35:25;;;;;;;54.70;19.35;;;1.90;99.90;;;;;;5055047;28;20483;-93
2022/01/05 02:37:54;;;;;;;73.40;19.00;;;1.90;99.90;;;;;;5055308;28;20909;-94
2022/01/05 02:40:25;;;;;;;74.05;16.80;;;1.80;99.90;;;;;;5038922;28;20446;-93
2022/01/05 02:42:56;;;;;;;43.58;21.02;;;1.80;99.90;;;;;;5039023;28;20747;-93
2022/01/05 02:45:25;;;;;;;53.67;17.27;;;1.80;99.90;;;;;;5055293;28;20407;-94
2022/01/05 02:47:53;;;;;;;85.43;18.35;;;1.80;99.90;;;;;;5039365;28;20890;-94
2022/01/05 02:50:21;;;;;;;68.30;19.52;;;1.70;99.90;;;;;;5055843;28;20404;-93
2022/01/05 02:52:49;;;;;;;118.57;19.55;;;1.70;99.90;;;;;;5038704;28;20403;-94
2022/01/05 02:55:17;;;;;;;64.88;17.15;;;1.70;99.90;;;;;;5038017;28;20406;-95
2022/01/05 02:57:45;;;;;;;39.00;18.83;;;1.70;99.90;;;;;;5038704;28;20392;-94
2022/01/05 03:00:16;;;;;;;40.13;18.10;;;1.70;99.90;;;;;;5038986;28;20457;-94
2022/01/05 03:02:44;;;;;;;109.27;16.63;;;1.70;99.90;;;;;;5055461;28;20408;-94
2022/01/05 03:05:12;;;;;;;102.35;17.08;;;1.70;99.90;;;;;;5038526;28;20872;-93
2022/01/05 03:07:40;;;;;;;76.47;16.83;;;1.80;99.90;;;;;;5054408;28;20499;-93
2022/01/05 03:10:10;;;;;;;120.57;18.70;;;1.70;99.90;;;;;;5055308;28;20396;-94
2022/01/05 03:12:40;;;;;;;98.32;16.35;;;1.70;99.90;;;;;;5054912;28;20478;-93
2022/01/05 03:15:09;;;;;;;109.28;16.83;;;1.70;99.90;;;;;;5037988;28;20427;-95
2022/01/05 03:17:37;;;;;;;46.50;14.38;;;1.60;99.90;;;;;;5037894;28;20414;-91
2022/01/05 03:20:06;;;;;;;74.60;15.43;;;1.60;99.90;;;;;;5053976;28;20858;-93
2022/01/05 03:22:34;;;;;;;93.53;15.27;;;1.60;99.90;;;;;;5037851;28;20396;-93
2022/01/05 03:25:02;;;;;;;133.07;16.42;;;1.60;99.90;;;;;;5037406;28;20931;-94
2022/01/05 03:27:30;;;;;;;249.13;19.60;;;1.60;99.90;;;;;;5054217;28;20404;-94
2022/01/05 03:29:58;;;;;;;113.53;16.58;;;1.60;99.90;;;;;;5053894;28;20408;-93
2022/01/05 03:32:34;;;;;;;131.90;15.63;;;1.60;99.90;;;;;;5053500;28;20414;-94
2022/01/05 03:35:05;;;;;;;37.60;15.43;;;1.60;99.90;;;;;;5036214;28;20403;-94
2022/01/05 03:37:32;;;;;;;35.10;13.50;;;1.60;99.90;;;;;;5036894;28;20400;-94
2022/01/05 03:40:00;;;;;;;35.47;14.15;;;1.60;99.90;;;;;;5054199;28;20400;-93
2022/01/05 03:42:28;;;;;;;25.90;13.85;;;1.60;99.90;;;;;;5053245;28;20441;-94
2022/01/05 03:44:56;;;;;;;26.40;13.50;;;1.60;99.90;;;;;;5045073;28;20413;-94
2022/01/05 03:47:24;;;;;;;26.60;12.70;;;1.60;99.90;;;;;;5063856;28;20790;-94
2022/01/05 03:49:51;;;;;;;23.33;12.38;;;1.40;99.90;;;;;;5052969;28;20464;-93
2022/01/05 03:52:19;;;;;;;22.98;12.02;;;1.50;99.90;;;;;;5036176;28;20388;-93
2022/01/05 03:54:47;;;;;;;23.02;11.48;;;1.50;99.90;;;;;;5039795;28;20961;-95
2022/01/05 03:57:15;;;;;;;20.73;10.60;;;1.50;99.90;;;;;;5073179;28;20404;-94
2022/01/05 03:59:42;;;;;;;18.65;10.23;;;1.50;99.90;;;;;;5056421;28;20414;-94
2022/01/05 04:02:10;;;;;;;18.80;10.45;;;1.50;99.90;;;;;;5058376;28;20822;-94
2022/01/05 04:04:38;;;;;;;21.88;10.60;;;1.50;99.90;;;;;;5055647;28;20406;-93
2022/01/05 04:07:05;;;;;;;19.83;10.18;;;1.50;99.90;;;;;;5048518;28;20402;-94
2022/01/05 04:09:33;;;;;;;20.67;10.30;;;1.40;99.90;;;;;;5048536;28;20951;-93
2022/01/05 04:12:02;;;;;;;24.27;11.80;;;1.40;99.90;;;;;;5053315;28;20435;-93
2022/01/05 04:14:30;;;;;;;18.60;9.70;;;1.40;99.90;;;;;;5036674;28;20408;-94
2022/01/05 04:17:04;;;;;;;18.80;9.75;;;1.40;99.90;;;;;;5063695;28;20409;-92
2022/01/05 04:19:32;;;;;;;18.25;10.10;;;1.40;99.90;;;;;;5055698;28;20399;-94
2022/01/05 04:22:00;;;;;;;16.83;9.40;;;1.50;99.90;;;;;;5056587;28;20441;-93
2022/01/05 04:24:28;;;;;;;19.05;10.00;;;1.40;99.90;;;;;;5056196;28;20508;-94
2022/01/05 04:26:56;;;;;;;22.90;10.43;;;1.40;99.90;;;;;;5044690;28;20396;-95
2022/01/05 04:29:24;;;;;;;17.98;9.43;;;1.40;99.90;;;;;;5052663;28;20414;-93
2022/01/05 04:31:51;;;;;;;19.87;9.93;;;1.40;99.90;;;;;;5042637;28;20400;-93
2022/01/05 04:34:19;;;;;;;17.70;9.68;;;1.40;99.90;;;;;;5036380;28;20490;-93
2022/01/05 04:37:08;;;;;;;20.27;10.48;;;1.40;99.90;;;;;;5041691;28;20398;-92
2022/01/05 04:39:36;;;;;;;19.48;9.98;;;1.40;99.90;;;;;;5040962;28;20399;-93
2022/01/05 04:42:05;;;;;;;19.80;9.97;;;1.40;99.90;;;;;;5035369;28;20412;-93
2022/01/05 04:44:33;;;;;;;19.97;10.27;;;1.30;99.90;;;;;;5037351;28;20434;-92
2022/01/05 04:47:02;;;;;;;21.65;10.88;;;1.40;99.90;;;;;;5038166;28;20407;-92
2022/01/05 04:49:30;;;;;;;23.40;11.32;;;1.30;99.90;;;;;;5048602;28;20434;-94
2022/01/05 04:51:58;;;;;;;19.95;11.02;;;1.30;99.90;;;;;;5071787;28;20437;-91
2022/01/05 04:54:26;;;;;;;20.63;10.82;;;1.40;99.90;;;;;;5051680;28;20401;-92
2022/01/05 04:56:54;;;;;;;34.10;10.30;;;1.40;99.90;;;;;;5054246;28;21030;-93
2022/01/05 04:59:21;;;;;;;21.98;10.98;;;1.30;99.90;;;;;;5055308;28;20402;-94
2022/01/05 05:01:49;;;;;;;17.17;10.10;;;1.30;99.90;;;;;;5071139;28;20402;-94
2022/01/05 05:04:17;;;;;;;20.38;10.40;;;1.30;99.90;;;;;;5055424;28;20387;-94
2022/01/05 05:06:46;;;;;;;17.85;10.40;;;1.30;99.90;;;;;;5050254;28;20445;-93
2022/01/05 05:09:14;;;;;;;24.75;11.23;;;1.30;99.90;;;;;;5035522;28;21033;-93
2022/01/05 05:11:42;;;;;;;28.80;10.07;;;1.40;99.90;;;;;;5053723;28;20422;-94
2022/01/05 05:14:10;;;;;;;30.80;10.40;;;1.30;99.90;;;;;;5050180;28;20404;-93
2022/01/05 05:16:38;;;;;;;22.02;10.60;;;1.30;99.90;;;;;;5051453;28;20403;-93
2022/01/05 05:19:06;;;;;;;50.58;13.13;;;1.30;99.90;;;;;;5039515;28;20457;-94
2022/01/05 05:21:34;;;;;;;34.42;9.05;;;1.30;99.90;;;;;;5050935;28;20410;-93
2022/01/05 05:24:02;;;;;;;21.02;9.38;;;1.30;99.90;;;;;;5034685;28;20477;-93
2022/01/05 05:26:30;;;;;;;25.77;8.45;;;1.30;99.90;;;;;;5034702;28;20404;-93
2022/01/05 05:28:58;;;;;;;22.45;8.75;;;1.30;99.90;;;;;;5035051;28;20469;-93
2022/01/05 05:31:26;;;;;;;30.52;9.88;;;1.20;99.90;;;;;;5034928;28;20924;-93
2022/01/05 05:33:54;;;;;;;76.68;10.80;;;1.30;99.90;;;;;;5042193;28;20434;-94
2022/01/05 05:36:22;;;;;;;126.90;13.13;;;1.20;99.90;;;;;;5053948;28;20398;-93
2022/01/05 05:38:50;;;;;;;178.45;15.80;;;1.20;99.90;;;;;;5038174;28;20390;-93
2022/01/05 05:41:18;;;;;;;22.27;9.95;;;1.20;99.90;;;;;;5054736;28;20394;-95
2022/01/05 05:43:48;;;;;;;55.42;10.60;;;1.30;99.90;;;;;;5049542;28;20406;-95
2022/01/05 05:46:17;;;;;;;47.33;12.60;;;1.30;99.90;;;;;;5040749;28;20414;-94
2022/01/05 05:48:45;;;;;;;38.55;8.48;;;1.30;99.90;;;;;;5054586;28;20419;-95
2022/01/05 05:51:13;;;;;;;28.83;9.98;;;1.30;99.90;;;;;;5052625;28;20402;-94
2022/01/05 05:53:40;;;;;;;86.32;13.27;;;1.30;99.90;;;;;;5054615;28;20885;-94
2022/01/05 05:56:08;;;;;;;74.57;9.52;;;1.30;99.90;;;;;;5055012;28;20402;-93
2022/01/05 05:58:36;;;;;;;49.88;9.68;;;1.30;99.90;;;;;;5076162;28;20382;-93
2022/01/05 06:01:04;;;;;;;43.75;8.43;;;1.20;99.90;;;;;;5058545;28;20446;-94
2022/01/05 06:03:32;;;;;;;44.35;9.25;;;1.30;99.90;;;;;;5058474;28;20430;-94
2022/01/05 06:05:59;;;;;;;57.38;10.43;;;1.30;99.90;;;;;;5058376;28;20896;-94
2022/01/05 06:08:27;;;;;;;92.68;11.43;;;1.30;99.90;;;;;;5057728;28;20414;-94
2022/01/05 06:10:55;;;;;;;31.48;8.85;;;1.30;99.90;;;;;;5055238;28;20415;-93
2022/01/05 06:13:22;;;;;;;40.05;9.35;;;1.30;99.90;;;;;;5047480;28;20442;-94
2022/01/05 06:15:50;;;;;;;22.35;7.55;;;1.30;99.90;;;;;;5050361;28;20492;-94
2022/01/05 06:18:18;;;;;;;40.92;9.77;;;1.30;99.90;;;;;;5052229;28;20491;-94
2022/01/05 06:20:45;;;;;;;19.30;10.45;;;1.40;99.90;;;;;;5035780;28;20412;-93
2022/01/05 06:23:13;;;;;;;42.75;9.30;;;1.40;99.90;;;;;;5053098;28;20754;-94
2022/01/05 06:25:41;;;;;;;31.42;8.85;;;1.40;99.90;;;;;;5053418;28;20435;-94
2022/01/05 06:28:11;;;;;;;61.67;9.52;;;1.40;99.90;;;;;;5053721;28;20394;-94
2022/01/05 06:30:39;;;;;;;44.78;11.05;;;1.40;99.90;;;;;;5053447;28;20399;-94
2022/01/05 06:33:07;;;;;;;42.85;8.05;;;1.40;99.90;;;;;;5053538;28;20396;-94
2022/01/05 06:35:35;;;;;;;29.50;9.10;;;1.40;99.90;;;;;;5053805;28;20431;-93
2022/01/05 06:38:03;;;;;;;67.95;10.57;;;1.40;99.90;;;;;;5037342;28;20402;-94
2022/01/05 06:40:30;;;;;;;15.82;7.60;;;1.30;99.90;;;;;;5053857;28;20414;-93
2022/01/05 06:42:59;;;;;;;21.67;7.72;;;1.30;99.90;;;;;;5053803;28;20404;-92
2022/01/05 06:45:27;;;;;;;54.80;7.88;;;1.40;99.90;;;;;;5037491;28;20419;-93
2022/01/05 06:47:55;;;;;;;28.23;9.18;;;1.40;99.90;;;;;;5037381;28;20407;-94
2022/01/05 06:50:23;;;;;;;29.95;9.85;;;1.40;99.90;;;;;;5053631;28;20986;-94
2022/01/05 06:52:50;;;;;;;48.67;9.43;;;1.40;99.90;;;;;;5037168;28;20427;-93
2022/01/05 06:55:18;;;;;;;38.08;7.93;;;1.40;99.90;;;;;;5053526;28;20938;-93
2022/01/05 06:57:47;;;;;;;22.48;8.95;;;1.40;99.90;;;;;;5037026;28;20388;-93
2022/01/05 07:00:15;;;;;;;40.78;8.18;;;1.40;99.90;;;;;;5053576;28;20404;-93
2022/01/05 07:02:43;;;;;;;44.83;8.52;;;1.40;99.90;;;;;;5053421;28;20498;-94
2022/01/05 07:05:10;;;;;;;20.70;8.50;;;1.40;99.90;;;;;;5037347;28;20431;-94
2022/01/05 07:07:38;;;;;;;35.97;7.67;;;1.40;99.90;;;;;;5037359;28;20483;-95
2022/01/05 07:10:07;;;;;;;46.55;7.90;;;1.30;99.90;;;;;;5037283;28;20408;-94
2022/01/05 07:12:37;;;;;;;34.25;7.38;;;1.30;99.90;;;;;;5037110;28;20965;-94
2022/01/05 07:15:05;;;;;;;25.40;7.38;;;1.30;99.90;;;;;;5037155;28;20422;-95
2022/01/05 07:17:33;;;;;;;41.27;8.33;;;1.30;99.90;;;;;;5053519;28;20396;-94
2022/01/05 07:20:02;;;;;;;15.05;7.28;;;1.20;99.90;;;;;;5037033;28;20403;-94
2022/01/05 07:22:30;;;;;;;16.23;7.32;;;1.20;99.90;;;;;;5036971;28;20444;-93
2022/01/05 07:24:59;;;;;;;16.48;8.25;;;1.20;99.90;;;;;;5053067;28;20404;-93
2022/01/05 07:27:27;;;;;;;15.73;8.00;;;1.20;99.90;;;;;;5036894;28;20902;-94
2022/01/05 07:29:54;;;;;;;12.57;6.75;;;1.20;99.90;;;;;;5053396;28;20777;-93
2022/01/05 07:32:22;;;;;;;13.23;6.45;;;1.20;99.90;;;;;;5036850;28;20407;-94
2022/01/05 07:34:50;;;;;;;11.93;5.67;;;1.20;99.90;;;;;;5053105;28;20412;-94
2022/01/05 07:37:18;;;;;;;12.00;6.43;;;1.10;99.90;;;;;;5036709;28;20426;-94
2022/01/05 07:39:45;;;;;;;12.13;6.33;;;1.10;99.90;;;;;;5036714;28;20411;-94
2022/01/05 07:42:13;;;;;;;15.68;7.60;;;1.00;99.90;;;;;;5036965;28;20411;-94
2022/01/05 07:44:41;;;;;;;13.00;6.20;;;1.10;99.90;;;;;;5037303;28;20449;-95
2022/01/05 07:47:11;;;;;;;12.68;6.47;;;1.10;99.90;;;;;;5036902;28;20435;-93
2022/01/05 07:49:39;;;;;;;14.63;7.35;;;1.10;99.90;;;;;;5036606;28;20959;-93
2022/01/05 07:52:07;;;;;;;17.48;8.20;;;1.10;99.90;;;;;;5052418;28;20403;-94
2022/01/05 07:54:36;;;;;;;10.10;5.60;;;1.10;99.90;;;;;;5036206;28;20903;-93
2022/01/05 07:57:05;;;;;;;12.20;6.82;;;1.10;99.90;;;;;;5036032;28;20411;-94
2022/01/05 07:59:33;;;;;;;15.95;8.07;;;1.10;99.90;;;;;;5035954;28;20431;-93
2022/01/05 08:02:01;;;;;;;14.75;8.02;;;1.10;99.90;;;;;;5036021;28;20446;-93
2022/01/05 08:04:29;;;;;;;13.32;7.05;;;1.10;99.90;;;;;;5052283;28;20408;-92
2022/01/05 08:06:57;;;;;;;14.93;7.72;;;1.00;99.90;;;;;;5035888;28;20407;-94
2022/01/05 08:09:25;;;;;;;13.47;6.83;;;1.10;99.90;;;;;;5035871;28;20751;-94
2022/01/05 08:11:52;;;;;;;12.48;7.15;;;1.10;99.90;;;;;;5035716;28;20961;-93
2022/01/05 08:14:20;;;;;;;11.70;6.65;;;1.10;99.90;;;;;;5035609;28;20412;-93
2022/01/05 08:16:48;;;;;;;14.07;8.10;;;1.10;99.90;;;;;;5052434;28;21001;-93
2022/01/05 08:19:16;;;;;;;13.20;6.53;;;1.10;99.90;;;;;;5051855;28;20578;-93
2022/01/05 08:21:43;;;;;;;10.60;5.85;;;1.10;99.90;;;;;;5035787;28;20483;-94
2022/01/05 08:24:11;;;;;;;12.32;6.53;;;1.10;99.90;;;;;;5051969;28;20414;-95
2022/01/05 08:26:39;;;;;;;14.38;6.20;;;1.20;99.90;;;;;;5052084;28;20417;-93
2022/01/05 08:29:07;;;;;;;10.57;5.68;;;1.20;99.90;;;;;;5035453;28;20484;-94
2022/01/05 08:31:35;;;;;;;13.07;6.13;;;1.20;99.90;;;;;;5035447;28;20421;-94
2022/01/05 08:34:03;;;;;;;10.27;5.10;;;1.20;99.90;;;;;;5051941;28;20449;-93
2022/01/05 08:36:30;;;;;;;11.02;5.05;;;1.20;99.90;;;;;;5035355;28;20754;-93
2022/01/05 08:39:00;;;;;;;11.93;5.68;;;1.30;99.90;;;;;;5051956;28;20923;-93
2022/01/05 08:41:28;;;;;;;11.20;5.47;;;1.40;99.90;;;;;;5035137;28;20406;-93
2022/01/05 08:43:56;;;;;;;9.75;4.82;;;1.40;99.90;;;;;;5035152;28;20404;-94
2022/01/05 08:46:23;;;;;;;10.77;5.07;;;1.50;99.90;;;;;;5035220;28;20403;-93
2022/01/05 08:48:51;;;;;;;11.90;5.28;;;1.50;99.90;;;;;;5051719;28;20410;-93
2022/01/05 08:51:19;;;;;;;11.03;5.80;;;1.50;99.90;;;;;;5035776;28;20407;-93
2022/01/05 08:53:47;;;;;;;8.60;4.28;;;1.50;99.90;;;;;;5035736;28;20404;-93
2022/01/05 08:56:15;;;;;;;7.57;3.65;;;1.50;99.90;;;;;;5035195;28;20450;-93
2022/01/05 08:58:43;;;;;;;8.65;4.15;;;1.50;99.90;;;;;;5053171;28;20403;-94
2022/01/05 09:01:12;;;;;;;6.32;3.35;;;1.50;99.90;;;;;;5052264;28;20410;-92
2022/01/05 09:03:40;;;;;;;6.68;2.90;;;1.50;99.90;;;;;;5035482;28;20399;-92
2022/01/05 09:06:08;;;;;;;5.25;2.58;;;1.50;99.90;;;;;;5035371;28;20399;-92
2022/01/05 09:08:38;;;;;;;4.57;2.50;;;1.50;99.90;;;;;;5035185;28;20434;-93
2022/01/05 09:11:08;;;;;;;5.40;2.70;;;1.50;99.90;;;;;;5051822;28;20475;-90
2022/01/05 09:13:36;;;;;;;3.78;1.83;;;1.40;99.90;;;;;;5035788;28;20469;-92
2022/01/05 09:16:04;;;;;;;2.38;1.20;;;1.40;99.90;;;;;;5034866;28;20431;-93
2022/01/05 09:18:32;;;;;;;3.35;1.35;;;1.30;99.90;;;;;;5034852;28;20529;-91
2022/01/05 09:20:59;;;;;;;2.50;1.20;;;1.30;99.90;;;;;;5035016;28;20396;-93
2022/01/05 09:23:27;;;;;;;3.40;1.35;;;1.30;99.90;;;;;;5051010;28;20408;-90
2022/01/05 09:25:55;;;;;;;0.95;0.60;;;1.20;99.90;;;;;;5051592;28;20916;-94
2022/01/05 09:28:22;;;;;;;1.67;0.80;;;1.20;99.90;;;;;;5051708;28;20395;-94
2022/01/05 09:30:50;;;;;;;1.55;0.60;;;1.20;99.90;;;;;;5052509;28;20391;-93
2022/01/05 09:33:18;;;;;;;0.95;0.60;;;1.20;99.90;;;;;;5055751;28;20388;-94
2022/01/05 09:35:48;;;;;;;1.58;0.50;;;1.10;99.90;;;;;;5056773;28;20455;-93
2022/01/05 09:38:35;;;;;;;1.40;0.50;;;1.10;99.90;;;;;;5055284;28;20410;-94
2022/01/05 09:43:56;;;;;;;0.75;0.40;;;1.10;99.90;;;;;;5056259;28;20403;-93
2022/01/05 09:47:01;;;;;;;1.30;0.60;;;1.10;99.90;;;;;;5055248;28;20403;-93
2022/01/05 09:49:35;;;;;;;1.30;0.60;;;1.10;99.90;;;;;;5055403;28;20395;-92
2022/01/05 09:52:10;;;;;;;1.55;0.60;;;1.10;99.90;;;;;;5054890;28;20463;-92
2022/01/05 09:54:43;;;;;;;0.90;0.30;;;1.00;99.90;;;;;;5038332;28;20414;-92
2022/01/05 09:57:14;;;;;;;0.73;0.30;;;0.90;99.90;;;;;;5054690;28;20438;-90
2022/01/05 09:59:43;;;;;;;1.50;0.30;;;0.90;99.90;;;;;;5067734;28;20448;-91
2022/01/05 10:02:12;;;;;;;1.50;0.38;;;0.90;99.90;;;;;;5058088;28;20896;-92
2022/01/05 10:04:40;;;;;;;1.73;0.32;;;0.90;99.90;;;;;;5056588;28;20412;-92
2022/01/05 10:07:09;;;;;;;1.00;0.43;;;0.90;99.90;;;;;;5074460;28;20425;-92
2022/01/05 10:09:38;;;;;;;1.85;0.50;;;0.80;99.90;;;;;;5074652;28;20915;-92
2022/01/05 10:12:09;;;;;;;1.02;0.40;;;0.80;99.90;;;;;;5058153;28;20402;-90
2022/01/05 10:14:42;;;;;;;1.13;0.50;;;0.80;99.90;;;;;;5074390;28;20394;-92
2022/01/05 10:17:13;;;;;;;1.20;0.57;;;0.80;99.90;;;;;;5074146;28;20406;-92
2022/01/05 10:19:42;;;;;;;2.60;0.50;;;0.80;99.90;;;;;;5074510;28;20386;-91
2022/01/05 10:22:32;;;;;;;1.90;0.70;;;0.80;99.90;;;;;;5057690;28;20391;-92
2022/01/05 10:25:08;;;;;;;2.47;0.80;;;0.80;99.90;;;;;;5057680;28;20398;-92
2022/01/05 10:27:36;;;;;;;1.85;0.80;;;0.70;99.90;;;;;;5057514;28;20401;-91
2022/01/05 10:30:09;;;;;;;1.70;0.90;;;0.70;99.90;;;;;;5057549;28;20402;-91
2022/01/05 10:32:38;;;;;;;1.63;0.80;;;0.70;99.90;;;;;;5057557;28;20402;-91
2022/01/05 10:35:08;;;;;;;1.40;0.80;;;0.70;99.90;;;;;;5057702;28;20476;-92
2022/01/05 10:37:42;;;;;;;1.98;0.90;;;0.70;99.90;;;;;;5074044;28;20416;-91
2022/01/05 10:40:20;;;;;;;3.33;1.00;;;0.70;99.90;;;;;;5074036;28;20397;-92
2022/01/05 10:42:50;;;;;;;2.10;0.70;;;0.70;99.90;;;;;;5073436;28;20397;-92
2022/01/05 10:45:23;;;;;;;1.67;1.00;;;0.70;99.90;;;;;;5057282;28;20797;-92
2022/01/05 10:48:04;;;;;;;4.45;1.10;;;0.80;99.90;;;;;;5074015;28;20391;-91
2022/01/05 10:50:32;;;;;;;3.83;1.00;;;0.80;99.90;;;;;;5073542;28;20396;-91
2022/01/05 10:53:00;;;;;;;3.30;1.15;;;0.80;99.90;;;;;;5057574;28;20386;-92
2022/01/05 10:55:30;;;;;;;2.67;0.90;;;0.90;99.90;;;;;;5057213;28;20390;-92
2022/01/05 10:58:02;;;;;;;3.10;0.90;;;0.90;99.90;;;;;;5073491;28;20410;-93
2022/01/05 11:00:45;;;;;;;2.23;0.90;;;1.00;99.90;;;;;;5073307;28;20915;-92
2022/01/05 11:03:43;;;;;;;2.92;1.00;;;0.90;99.90;;;;;;5073517;28;20409;-92
2022/01/05 11:06:17;;;;;;;3.17;1.30;;;1.00;99.90;;;;;;5056692;28;20447;-92
2022/01/05 11:08:55;;;;;;;6.50;1.00;;;1.00;99.90;;;;;;5073494;28;20402;-91
2022/01/05 11:11:40;;;;;;;6.25;1.30;;;0.90;99.90;;;;;;5073360;28;20481;-91
2022/01/05 11:14:10;;;;;;;3.08;1.00;;;0.80;99.90;;;;;;5073077;28;20473;-92
2022/01/05 11:16:41;;;;;;;4.03;1.20;;;0.70;99.90;;;;;;5073277;28;20918;-91
2022/01/05 11:19:17;;;;;;;4.63;1.10;;;0.70;99.90;;;;;;5056773;28;20458;-92
2022/01/05 11:22:14;;;;;;;5.53;1.23;;;0.70;99.90;;;;;;5073123;28;20392;-89
2022/01/05 11:24:44;;;;;;;2.85;0.90;;;0.60;99.90;;;;;;5056347;28;20452;-89
2022/01/05 11:27:28;;;;;;;4.53;1.25;;;0.60;99.90;;;;;;5073010;28;20410;-91
2022/01/05 11:29:57;;;;;;;3.85;1.20;;;0.60;99.90;;;;;;5056438;28;20432;-91
2022/01/05 11:32:30;;;;;;;5.28;1.13;;;0.60;99.90;;;;;;5056053;28;20405;-90
2022/01/05 11:34:58;;;;;;;7.50;1.05;;;0.60;99.90;;;;;;5072704;28;20512;-90
2022/01/05 11:37:26;;;;;;;3.77;1.00;;;0.60;99.90;;;;;;5055918;28;20398;-92
2022/01/05 11:39:56;;;;;;;3.03;0.98;;;0.60;99.90;;;;;;5056227;28;20880;-91
2022/01/05 11:42:35;;;;;;;4.50;0.90;;;0.60;99.90;;;;;;5072738;28;20868;-90
2022/01/05 11:45:06;;;;;;;4.72;0.95;;;0.50;99.90;;;;;;5072574;28;20398;-91
2022/01/05 11:47:40;;;;;;;5.85;1.20;;;0.50;99.90;;;;;;5055897;28;20395;-91
2022/01/05 11:50:24;;;;;;;4.53;1.00;;;0.50;99.90;;;;;;5055960;28;20409;-91
2022/01/05 11:52:55;;;;;;;3.55;0.82;;;0.50;99.90;;;;;;5072428;28;20409;-90
2022/01/05 11:55:23;;;;;;;4.00;0.90;;;0.50;99.90;;;;;;5054857;28;20505;-91
2022/01/05 11:58:12;;;;;;;4.68;0.80;;;0.50;99.90;;;;;;5055905;28;20416;-90
2022/01/05 12:00:41;;;;;;;3.63;0.90;;;0.60;99.90;;;;;;5055730;28;20386;-89
2022/01/05 12:03:09;;;;;;;4.18;0.80;;;0.50;99.90;;;;;;5055846;28;20962;-89
2022/01/05 12:06:02;;;;;;;6.15;1.23;;;0.50;99.90;;;;;;5071957;28;20398;-89
2022/01/05 12:08:47;;;;;;;5.30;1.02;;;0.50;99.90;;;;;;5055624;28;20801;-89
2022/01/05 12:11:39;;;;;;;3.72;0.80;;;0.50;99.90;;;;;;5072185;28;20831;-90
2022/01/05 12:14:20;;;;;;;7.70;1.08;;;0.50;99.90;;;;;;5072053;28;20394;-91
2022/01/05 12:17:01;;;;;;;4.03;0.93;;;0.50;99.90;;;;;;5072047;28;20531;-92
2022/01/05 12:19:46;;;;;;;3.88;0.90;;;0.50;99.90;;;;;;5071810;28;20959;-91
2022/01/05 12:22:23;;;;;;;3.97;0.88;;;0.50;99.90;;;;;;5072005;28;20447;-91
2022/01/05 12:24:54;;;;;;;5.53;1.15;;;0.50;99.90;;;;;;5072749;28;20400;-91
2022/01/05 12:27:22;;;;;;;4.10;0.95;;;0.40;99.90;;;;;;5055271;28;20547;-91
2022/01/05 12:29:51;;;;;;;5.53;0.90;;;0.50;99.90;;;;;;5055242;28;20398;-91
2022/01/05 12:32:40;;;;;;;4.82;1.10;;;0.40;99.90;;;;;;5071667;28;20394;-91
2022/01/05 12:35:17;;;;;;;10.38;1.60;;;0.40;99.90;;;;;;5055443;28;20417;-89
2022/01/05 12:37:47;;;;;;;5.05;1.30;;;0.40;99.90;;;;;;5071545;28;20408;-91
2022/01/05 12:40:30;;;;;;;6.90;1.40;;;0.40;99.90;;;;;;5055054;28;20418;-90
2022/01/05 12:43:07;;;;;;;5.88;1.30;;;0.40;99.90;;;;;;5071562;28;20394;-90
2022/01/05 12:45:52;;;;;;;8.07;1.80;;;0.40;99.90;;;;;;5071454;28;20382;-91
2022/01/05 12:48:32;;;;;;;6.80;1.58;;;0.40;99.90;;;;;;5068915;28;20417;-92
2022/01/05 12:51:31;;;;;;;6.03;1.80;;;0.50;99.90;;;;;;5038074;28;20399;-91
2022/01/05 12:54:08;;;;;;;10.00;1.50;;;0.50;99.90;;;;;;5034500;28;20469;-91
2022/01/05 12:56:55;;;;;;;8.45;1.70;;;0.50;99.90;;;;;;5055033;28;20439;-91
2022/01/05 12:59:35;;;;;;;4.93;1.60;;;0.50;99.90;;;;;;5069241;28;20440;-92
2022/01/05 13:02:08;;;;;;;6.03;1.55;;;0.50;99.90;;;;;;5051128;28;20399;-91
2022/01/05 13:04:38;;;;;;;5.53;1.30;;;0.50;99.90;;;;;;5037026;28;20384;-92
2022/01/05 13:07:06;;;;;;;3.92;1.10;;;0.40;99.90;;;;;;5051074;28;20878;-90